Time;durP1;ratioP1;P1;durP2;ratioP2;P2;SDS_P1;SDS_P2;PMS_P1;PMS_P2;Temp;Humidity;BMP_temperature;BMP_pressure;BME280_temperature;BME280_humidity;BME280_pressure;Samples;Min_cycle;Max_cycle;Signal;HPM_P1;HPM_P2
2023/09/19 00:01:41;;;;;;;6.63;5.10;;;;;;;17.56;72.39;97449.97;5045143;28;20193;-80
2023/09/19 00:04:09;;;;;;;7.33;5.63;;;;;;;17.24;73.31;97425.91;5044474;28;20210;-81
2023/09/19 00:06:37;;;;;;;7.10;5.00;;;;;;;17.54;72.47;97431.75;5040937;28;20704;-81
2023/09/19 00:09:04;;;;;;;7.17;4.53;;;;;;;17.95;71.43;97454.31;5050289;28;20652;-81
2023/09/19 00:11:31;;;;;;;6.97;5.40;;;;;;;18.01;71.35;97452.09;5050874;28;20208;-80
2023/09/19 00:13:59;;;;;;;10.63;5.57;;;;;;;17.86;71.22;97453.16;5049868;28;20321;-81
2023/09/19 00:16:27;;;;;;;9.37;5.57;;;;;;;17.35;72.64;97441.75;5048718;28;20356;-81
2023/09/19 00:18:55;;;;;;;8.43;5.30;;;;;;;17.02;74.32;97444.78;5049183;28;20233;-81
2023/09/19 00:21:22;;;;;;;7.83;5.10;;;;;;;17.22;74.08;97440.03;5050587;28;20201;-81
2023/09/19 00:23:51;;;;;;;8.33;5.10;;;;;;;17.49;72.95;97441.72;5048628;28;20194;-81
2023/09/19 00:26:18;;;;;;;7.93;6.00;;;;;;;17.63;72.20;97451.25;5046349;28;20249;-82
2023/09/19 00:28:48;;;;;;;6.87;4.70;;;;;;;17.73;71.53;97447.91;5049868;28;20611;-82
2023/09/19 00:31:19;;;;;;;7.07;4.90;;;;;;;17.27;71.88;97401.31;5045809;28;20198;-82
2023/09/19 00:33:48;;;;;;;5.73;4.80;;;;;;;17.60;71.67;97451.44;5050072;28;20248;-81
2023/09/19 00:36:15;;;;;;;5.77;4.60;;;;;;;17.12;72.56;97407.56;5048571;28;20204;-81
2023/09/19 00:38:44;;;;;;;9.27;5.80;;;;;;;17.09;73.49;97447.84;5049127;28;20772;-82
2023/09/19 00:41:12;;;;;;;7.07;4.90;;;;;;;16.98;74.14;97447.72;5066144;28;20201;-81
2023/09/19 00:43:40;;;;;;;5.53;4.63;;;;;;;17.26;73.08;97441.53;5069251;28;20193;-80
2023/09/19 00:46:07;;;;;;;6.50;4.33;;;;;;;17.23;72.73;97431.25;5051236;28;20210;-82
2023/09/19 00:48:43;;;;;;;6.07;4.37;;;;;;;17.47;72.32;97450.56;5049656;28;20199;-82
2023/09/19 00:51:13;;;;;;;6.63;4.53;;;;;;;17.43;72.36;97441.25;5050388;28;20238;-81
2023/09/19 00:53:46;;;;;;;7.40;5.00;;;;;;;17.12;72.84;97429.34;5050139;28;20182;-81
2023/09/19 00:56:18;;;;;;;7.07;4.73;;;;;;;16.62;74.86;97440.44;5050885;28;20195;-82
2023/09/19 00:58:47;;;;;;;6.87;5.17;;;;;;;16.22;76.10;97430.75;5049407;28;20217;-82
2023/09/19 01:01:14;;;;;;;7.47;4.93;;;;;;;15.97;76.78;97415.75;5049262;28;20202;-82
2023/09/19 01:03:44;;;;;;;6.77;5.00;;;;;;;16.22;77.14;97451.66;5050139;28;20279;-82
2023/09/19 01:06:12;;;;;;;8.73;5.10;;;;;;;16.04;77.94;97435.38;5047298;28;20198;-82
2023/09/19 01:08:40;;;;;;;7.80;5.07;;;;;;;16.23;77.79;97448.97;5049804;28;20596;-82
2023/09/19 01:11:40;;;;;;;5.60;4.70;;;;;;;15.84;78.62;97451.41;5048933;28;20204;-82
2023/09/19 01:14:27;;;;;;;10.63;5.20;;;;;;;16.10;77.68;97440.22;5047763;28;20241;-81
2023/09/19 01:17:22;;;;;;;7.50;5.00;;;;;;;16.42;77.07;97434.75;5049562;28;20226;-82
2023/09/19 01:20:01;;;;;;;7.83;4.77;;;;;;;16.58;76.26;97438.13;5048315;28;20674;-82
2023/09/19 01:22:41;;;;;;;5.57;5.07;;;;;;;16.26;77.05;97411.34;5049305;28;20189;-82
2023/09/19 01:25:33;;;;;;;7.60;5.07;;;;;;;16.35;77.49;97436.91;5048563;28;20205;-81
2023/09/19 01:28:38;;;;;;;6.63;5.00;;;;;;;16.10;79.29;97440.22;5047856;28;20647;-81
2023/09/19 01:31:10;;;;;;;7.13;4.70;;;;;;;15.93;79.07;97414.25;5049741;28;20210;-84
2023/09/19 01:34:00;;;;;;;6.50;5.43;;;;;;;16.03;79.62;97433.66;5049146;28;20199;-82
2023/09/19 01:36:36;;;;;;;6.40;4.73;;;;;;;16.11;79.12;97431.44;5046559;28;20188;-82
2023/09/19 01:39:15;;;;;;;7.00;4.97;;;;;;;16.06;79.62;97437.88;5048095;28;20225;-82
2023/09/19 01:41:57;;;;;;;6.37;4.67;;;;;;;15.98;79.39;97429.66;5048484;28;20282;-82
2023/09/19 01:44:36;;;;;;;6.17;5.00;;;;;;;16.07;79.02;97429.13;5048543;28;20201;-81
2023/09/19 01:47:13;;;;;;;5.87;4.63;;;;;;;16.06;79.02;97424.81;5047897;28;21048;-81
2023/09/19 01:49:46;;;;;;;6.00;4.30;;;;;;;15.97;79.60;97423.59;5046585;28;20286;-81
2023/09/19 01:52:13;;;;;;;8.50;5.03;;;;;;;15.72;80.91;97412.13;5048252;28;20191;-81
2023/09/19 01:54:48;;;;;;;6.90;5.00;;;;;;;15.81;81.26;97419.38;5048047;28;20194;-81
2023/09/19 01:57:38;;;;;;;5.93;4.47;;;;;;;16.27;79.81;97413.03;5047203;28;20280;-82
2023/09/19 02:00:11;;;;;;;5.10;4.37;;;;;;;16.65;78.04;97421.13;5047226;28;20192;-81
2023/09/19 02:02:42;;;;;;;6.40;4.70;;;;;;;16.88;76.66;97420.47;5047343;28;20706;-81
2023/09/19 02:05:10;;;;;;;6.47;4.73;;;;;;;16.85;76.47;97415.44;5049132;28;20217;-81
2023/09/19 02:07:38;;;;;;;6.27;4.70;;;;;;;16.86;76.87;97412.72;5046079;28;20189;-81
2023/09/19 02:10:06;;;;;;;6.43;4.53;;;;;;;16.93;76.47;97419.25;5048607;28;20285;-82
2023/09/19 02:12:35;;;;;;;5.07;4.10;;;;;;;16.90;76.29;97413.34;5047109;28;20198;-82
2023/09/19 02:15:07;;;;;;;4.67;4.17;;;;;;;16.70;76.57;97417.25;5046061;28;20198;-81
2023/09/19 02:17:34;;;;;;;9.70;4.67;;;;;;;16.46;77.54;97415.34;5048409;28;20227;-81
2023/09/19 02:20:10;;;;;;;7.27;5.17;;;;;;;16.28;77.70;97415.53;5046696;28;20796;-81
2023/09/19 02:22:38;;;;;;;8.40;4.73;;;;;;;16.23;77.77;97411.56;5047004;28;20692;-80
2023/09/19 02:25:26;;;;;;;9.47;5.07;;;;;;;16.14;77.96;97412.94;5046901;28;20218;-80
2023/09/19 02:27:58;;;;;;;7.10;4.57;;;;;;;16.06;77.80;97409.97;5046829;28;20680;-80
2023/09/19 02:30:25;;;;;;;8.00;4.80;;;;;;;16.05;77.83;97394.41;5048317;28;20201;-80
2023/09/19 02:32:52;;;;;;;6.40;4.90;;;;;;;15.90;78.67;97395.34;5045636;28;20671;-80
2023/09/19 02:35:20;;;;;;;6.77;5.27;;;;;;;15.83;78.98;97392.25;5048238;28;20194;-81
2023/09/19 02:37:47;;;;;;;7.67;4.97;;;;;;;15.77;79.25;97383.94;5045528;28;20700;-81
2023/09/19 02:40:18;;;;;;;6.53;5.23;;;;;;;15.82;79.31;97397.59;5048164;28;20198;-80
2023/09/19 02:42:52;;;;;;;5.70;4.83;;;;;;;15.96;79.33;97401.03;5047936;28;20197;-80
2023/09/19 02:45:22;;;;;;;6.87;5.23;;;;;;;16.07;78.42;97398.56;5045337;28;20950;-80
2023/09/19 02:47:50;;;;;;;9.10;5.23;;;;;;;15.71;79.94;97400.84;5046848;28;20570;-80
2023/09/19 02:50:17;;;;;;;6.63;5.43;;;;;;;15.66;80.17;97395.03;5046762;28;20639;-80
2023/09/19 02:52:48;;;;;;;6.93;5.90;;;;;;;15.39;80.74;97381.03;5046553;28;20199;-81
2023/09/19 02:55:19;;;;;;;7.70;4.90;;;;;;;15.00;82.76;97386.78;5047087;28;20194;-81
2023/09/19 02:57:52;;;;;;;9.30;5.67;;;;;;;15.28;81.73;97397.31;5047823;28;20190;-80
2023/09/19 03:00:20;;;;;;;8.33;5.47;;;;;;;15.22;81.31;97365.50;5047927;28;20244;-81
2023/09/19 03:02:49;;;;;;;7.23;5.30;;;;;;;15.32;80.86;97370.09;5029177;28;20625;-82
2023/09/19 03:05:17;;;;;;;8.80;5.23;;;;;;;15.61;79.72;97371.00;5047084;28;20193;-81
2023/09/19 03:07:50;;;;;;;6.83;5.63;;;;;;;15.79;79.33;97395.13;5045041;28;20666;-81
2023/09/19 03:10:20;;;;;;;7.33;5.40;;;;;;;16.06;77.86;97393.47;5046432;28;20220;-82
2023/09/19 03:12:48;;;;;;;7.30;4.80;;;;;;;16.06;77.31;97381.25;5046962;28;20194;-82
2023/09/19 03:15:15;;;;;;;9.30;5.53;;;;;;;15.90;77.61;97380.50;5046945;28;20743;-82
2023/09/19 03:17:45;;;;;;;9.03;5.70;;;;;;;15.81;78.39;97393.28;5045934;28;20798;-82
2023/09/19 03:20:14;;;;;;;7.93;5.37;;;;;;;15.68;78.36;97364.47;5044946;28;20357;-82
2023/09/19 03:22:42;;;;;;;9.73;5.77;;;;;;;15.48;79.07;97370.03;5046829;28;20186;-82
2023/09/19 03:25:11;;;;;;;8.90;5.23;;;;;;;15.84;78.14;97388.72;5045701;28;20257;-82
2023/09/19 03:27:40;;;;;;;16.00;6.47;;;;;;;16.06;77.45;97391.69;5046803;28;20203;-82
2023/09/19 03:30:09;;;;;;;6.43;4.97;;;;;;;16.25;76.57;97394.84;5045874;28;20681;-83
2023/09/19 03:32:36;;;;;;;7.13;5.50;;;;;;;15.89;76.27;97357.91;5045444;28;20193;-82
2023/09/19 03:35:07;;;;;;;6.80;5.00;;;;;;;15.43;78.83;97395.59;5046286;28;20190;-83
2023/09/19 03:37:34;;;;;;;7.77;5.10;;;;;;;15.20;79.99;97381.25;5044637;28;20269;-81
2023/09/19 03:40:04;;;;;;;8.40;5.70;;;;;;;15.26;78.99;97356.56;5049849;28;20250;-82
2023/09/19 03:42:32;;;;;;;7.67;5.03;;;;;;;15.77;77.98;97376.13;5049910;28;20276;-82
2023/09/19 03:45:00;;;;;;;8.87;5.80;;;;;;;16.08;76.45;97395.03;5050078;28;20223;-81
2023/09/19 03:47:29;;;;;;;10.77;6.17;;;;;;;15.82;76.95;97387.97;5049574;28;20212;-81
2023/09/19 03:49:58;;;;;;;11.93;6.50;;;;;;;15.69;77.40;97389.66;5049329;28;20197;-82
2023/09/19 03:52:25;;;;;;;8.10;5.43;;;;;;;15.66;77.08;97387.19;5050254;28;20222;-82
2023/09/19 03:54:52;;;;;;;9.40;5.87;;;;;;;15.46;77.80;97409.28;5048442;28;20667;-82
2023/09/19 03:57:20;;;;;;;8.17;5.70;;;;;;;15.05;80.19;97403.00;5050939;28;20281;-81
2023/09/19 03:59:47;;;;;;;7.63;6.00;;;;;;;15.04;81.24;97401.34;5049238;28;20814;-82
2023/09/19 04:02:22;;;;;;;9.47;6.77;;;;;;;14.97;81.29;97405.22;5051002;28;20236;-81
2023/09/19 04:04:51;;;;;;;9.60;6.13;;;;;;;15.21;80.76;97395.13;5033961;28;20201;-81
2023/09/19 04:07:22;;;;;;;9.37;5.67;;;;;;;15.38;79.92;97411.50;5064729;28;20560;-82
2023/09/19 04:09:49;;;;;;;6.80;5.33;;;;;;;15.46;80.19;97398.84;5050367;28;20264;-81
2023/09/19 04:12:56;;;;;;;10.53;5.50;;;;;;;15.36;79.88;97387.25;5064338;28;20237;-80
2023/09/19 04:16:17;;;;;;;6.33;5.13;;;;;;;15.26;80.99;97414.81;5032645;28;20662;-81
2023/09/19 04:18:58;;;;;;;7.10;5.63;;;;;;;14.84;82.05;97374.72;5029356;28;20230;-79
2023/09/19 04:21:27;;;;;;;11.07;5.67;;;;;;;14.74;82.29;97376.16;5032151;28;20207;-80
2023/09/19 04:23:54;;;;;;;7.27;5.60;;;;;;;14.91;81.78;97394.31;5061721;28;20283;-81
2023/09/19 04:26:22;;;;;;;7.60;5.50;;;;;;;14.69;82.58;97405.94;5049349;28;20190;-80
2023/09/19 04:28:49;;;;;;;6.73;5.37;;;;;;;14.83;82.13;97406.94;5047672;28;20194;-81
2023/09/19 04:31:18;;;;;;;8.87;6.13;;;;;;;14.70;81.99;97388.53;5049919;28;20197;-81
2023/09/19 04:33:46;;;;;;;8.80;6.13;;;;;;;14.73;82.12;97374.50;5048484;28;20196;-80
2023/09/19 04:36:14;;;;;;;7.50;5.57;;;;;;;14.80;81.17;97389.69;5049504;28;20193;-81
2023/09/19 04:39:04;;;;;;;7.73;5.40;;;;;;;15.08;80.53;97376.75;5046190;28;20213;-80
2023/09/19 04:41:32;;;;;;;9.07;5.50;;;;;;;15.19;80.16;97394.38;5047772;28;20198;-80
2023/09/19 04:43:59;;;;;;;10.97;5.70;;;;;;;15.24;79.85;97392.34;5050005;28;20684;-81
2023/09/19 04:46:26;;;;;;;12.03;5.77;;;;;;;15.28;80.06;97396.47;5048786;28;20198;-81
2023/09/19 04:48:53;;;;;;;11.07;6.40;;;;;;;15.49;79.62;97405.66;5049573;28;20222;-81
2023/09/19 04:51:22;;;;;;;9.90;6.03;;;;;;;15.71;78.63;97403.44;5048343;28;20198;-81
2023/09/19 04:53:49;;;;;;;6.20;4.87;;;;;;;15.95;77.50;97407.16;5049626;28;20584;-80
2023/09/19 04:56:16;;;;;;;9.37;5.73;;;;;;;16.17;76.38;97396.25;5049257;28;20640;-82
2023/09/19 04:58:43;;;;;;;9.83;6.07;;;;;;;16.24;75.91;97387.94;5049511;28;20307;-81
2023/09/19 05:01:12;;;;;;;10.63;5.50;;;;;;;16.25;76.18;97409.69;5049584;28;20549;-81
2023/09/19 05:03:39;;;;;;;10.27;5.90;;;;;;;16.32;76.27;97395.31;5048578;28;20724;-81
2023/09/19 05:06:06;;;;;;;11.57;6.07;;;;;;;16.55;75.29;97407.78;5049452;28;20197;-82
2023/09/19 05:08:33;;;;;;;11.83;5.60;;;;;;;16.71;74.75;97398.00;5048615;28;20283;-81
2023/09/19 05:11:04;;;;;;;9.73;6.13;;;;;;;16.88;74.12;97410.00;5053795;28;20615;-82
2023/09/19 05:13:31;;;;;;;8.77;5.27;;;;;;;16.90;73.77;97393.25;5054882;28;20264;-82
2023/09/19 05:16:02;;;;;;;7.77;5.23;;;;;;;16.92;73.65;97399.22;5052116;28;20583;-82
2023/09/19 05:18:29;;;;;;;10.20;6.50;;;;;;;16.84;73.71;97409.38;5050026;28;20202;-82
2023/09/19 05:20:56;;;;;;;9.23;6.43;;;;;;;16.54;74.74;97416.56;5048565;28;20633;-81
2023/09/19 05:23:23;;;;;;;8.43;6.33;;;;;;;16.46;75.71;97412.72;5049487;28;20210;-82
2023/09/19 05:25:51;;;;;;;6.97;5.43;;;;;;;16.18;76.93;97419.66;5043660;28;20195;-81
2023/09/19 05:28:18;;;;;;;9.80;5.73;;;;;;;16.04;77.50;97417.06;5049200;28;20209;-82
2023/09/19 05:30:47;;;;;;;5.50;4.60;;;;;;;15.90;78.28;97404.03;5046578;28;20696;-82
2023/09/19 05:33:18;;;;;;;8.47;4.97;;;;;;;15.79;78.34;97363.81;5047373;28;20706;-81
2023/09/19 05:35:46;;;;;;;6.73;5.43;;;;;;;16.00;78.43;97391.22;5045300;28;20571;-82
2023/09/19 05:38:15;;;;;;;7.53;5.10;;;;;;;16.08;78.52;97412.50;5047280;28;20195;-82
2023/09/19 05:40:42;;;;;;;7.00;4.73;;;;;;;16.24;78.03;97401.00;5048682;28;20233;-82
2023/09/19 05:43:09;;;;;;;7.33;5.30;;;;;;;15.98;78.92;97370.44;5046977;28;20275;-82
2023/09/19 05:45:38;;;;;;;6.87;5.20;;;;;;;16.27;78.39;97398.19;5048099;28;20208;-82
2023/09/19 05:48:09;;;;;;;9.57;5.67;;;;;;;16.57;77.98;97402.47;5046686;28;20213;-82
2023/09/19 05:50:38;;;;;;;9.63;5.53;;;;;;;16.50;78.39;97398.56;5047786;28;20237;-80
2023/09/19 05:53:05;;;;;;;7.47;5.30;;;;;;;16.64;77.64;97406.34;5047534;28;20297;-82
2023/09/19 05:55:36;;;;;;;9.27;6.13;;;;;;;16.39;77.61;97373.06;5046707;28;20192;-81
2023/09/19 05:58:04;;;;;;;9.00;5.27;;;;;;;16.34;78.10;97385.59;5048062;28;20216;-81
2023/09/19 06:00:32;;;;;;;7.27;6.03;;;;;;;16.40;78.88;97392.19;5044955;28;20231;-81
2023/09/19 06:02:59;;;;;;;9.27;6.27;;;;;;;16.44;79.12;97398.91;5029986;28;20206;-80
2023/09/19 06:05:29;;;;;;;6.93;5.53;;;;;;;16.51;79.40;97400.22;5046720;28;20179;-81
2023/09/19 06:08:00;;;;;;;7.83;6.37;;;;;;;16.59;78.85;97377.06;5047733;28;20362;-80
2023/09/19 06:10:29;;;;;;;7.67;5.87;;;;;;;16.88;77.75;97407.38;5045538;28;20195;-81
2023/09/19 06:12:57;;;;;;;10.37;7.00;;;;;;;17.41;76.10;97402.09;5044783;28;20693;-80
2023/09/19 06:15:26;;;;;;;11.70;6.17;;;;;;;17.81;74.50;97392.38;5047637;28;20194;-85
2023/09/19 06:17:55;;;;;;;9.40;5.53;;;;;;;17.88;74.31;97402.34;5045198;28;20221;-81
2023/09/19 06:20:25;;;;;;;6.90;5.03;;;;;;;17.66;74.34;97373.28;5042476;28;20307;-79
2023/09/19 06:22:54;;;;;;;8.80;5.57;;;;;;;18.02;74.17;97400.53;5060183;28;20198;-76
2023/09/19 06:25:23;;;;;;;7.70;5.03;;;;;;;18.26;73.11;97398.81;5046479;28;20215;-73
2023/09/19 06:27:55;;;;;;;11.70;5.80;;;;;;;18.47;73.36;97399.94;5037819;28;20206;-79
2023/09/19 06:30:29;;;;;;;15.33;7.77;;;;;;;18.71;73.05;97399.97;5048393;28;20196;-77
2023/09/19 06:32:57;;;;;;;13.03;6.37;;;;;;;18.60;72.53;97403.38;5053027;28;20225;-73
2023/09/19 06:35:26;;;;;;;8.60;4.80;;;;;;;18.49;73.73;97398.88;5049316;28;20293;-78
2023/09/19 06:37:53;;;;;;;7.03;6.23;;;;;;;18.77;72.79;97400.38;5050691;28;20331;-74
2023/09/19 06:40:21;;;;;;;8.30;5.33;;;;;;;18.62;73.58;97406.72;5042234;28;20236;-74
2023/09/19 06:42:55;;;;;;;9.40;5.70;;;;;;;18.50;73.96;97386.63;5048263;28;20205;-77
2023/09/19 06:45:26;;;;;;;8.97;5.77;;;;;;;18.97;72.49;97393.66;5049751;28;20231;-77
2023/09/19 06:47:57;;;;;;;6.57;5.30;;;;;;;19.12;71.54;97401.25;5051802;28;20204;-73
2023/09/19 06:50:27;;;;;;;11.40;5.87;;;;;;;19.66;69.09;97390.19;5050247;28;20233;-74
2023/09/19 06:52:57;;;;;;;7.63;5.07;;;;;;;19.77;68.49;97392.81;5046268;28;20216;-74
2023/09/19 06:55:30;;;;;;;11.37;5.20;;;;;;;20.07;68.55;97395.72;5057826;28;20198;-79
2023/09/19 06:57:59;;;;;;;10.27;4.77;;;;;;;19.89;67.25;97397.97;5045672;28;20198;-86
2023/09/19 07:00:28;;;;;;;6.40;4.10;;;;;;;19.81;68.22;97395.09;5051101;28;20307;-82
2023/09/19 07:03:04;;;;;;;9.10;5.00;;;;;;;20.19;67.67;97390.38;5054553;28;20197;-76
2023/09/19 07:05:32;;;;;;;4.67;4.10;;;;;;;20.37;65.58;97393.34;5050910;28;20197;-76
2023/09/19 07:08:00;;;;;;;6.33;4.03;;;;;;;20.66;65.47;97394.50;5052011;28;20194;-78
2023/09/19 07:10:28;;;;;;;4.57;3.20;;;;;;;20.96;62.91;97397.25;5050618;28;20293;-76
2023/09/19 07:13:00;;;;;;;5.70;4.37;;;;;;;21.25;62.01;97388.78;5049871;28;20204;-80
2023/09/19 07:15:30;;;;;;;6.87;4.17;;;;;;;21.34;61.46;97390.66;5046091;28;20194;-78
2023/09/19 07:17:57;;;;;;;5.30;4.20;;;;;;;21.25;61.23;97362.44;5045900;28;20225;-80
2023/09/19 07:20:31;;;;;;;6.13;4.13;;;;;;;21.56;60.32;97387.91;5045381;28;20226;-77
2023/09/19 07:22:59;;;;;;;4.50;3.07;;;;;;;21.67;58.95;97393.13;5045136;28;20218;-81
2023/09/19 07:25:28;;;;;;;6.17;3.00;;;;;;;21.42;58.13;97383.78;5045072;28;20270;-74
2023/09/19 07:27:56;;;;;;;9.47;3.87;;;;;;;21.14;60.05;97373.91;5045034;28;20206;-79
2023/09/19 07:30:23;;;;;;;5.53;3.70;;;;;;;21.38;60.29;97389.44;5046346;28;20696;-78
2023/09/19 07:32:50;;;;;;;11.67;6.20;;;;;;;21.43;59.68;97382.00;5045414;28;20198;-79
2023/09/19 07:35:21;;;;;;;7.07;3.90;;;;;;;21.03;59.13;97327.38;5045698;28;20192;-78
2023/09/19 07:37:49;;;;;;;9.10;3.63;;;;;;;21.22;58.84;97378.50;5046146;28;20210;-76
2023/09/19 07:40:19;;;;;;;5.83;3.73;;;;;;;20.98;59.72;97371.63;5045216;28;20231;-76
2023/09/19 07:42:46;;;;;;;5.93;3.87;;;;;;;21.07;61.30;97377.97;5045312;28;20207;-79
2023/09/19 07:45:14;;;;;;;6.37;4.77;;;;;;;21.67;58.38;97382.56;5044483;28;20303;-75
2023/09/19 07:47:49;;;;;;;7.83;4.90;;;;;;;21.79;57.89;97368.34;5046322;28;20192;-79
2023/09/19 07:50:20;;;;;;;4.70;3.57;;;;;;;21.58;56.42;97320.06;5045651;28;20195;-78
2023/09/19 07:52:53;;;;;;;6.63;4.23;;;;;;;22.25;55.86;97378.44;5044856;28;20208;-78
2023/09/19 07:55:23;;;;;;;8.13;4.30;;;;;;;22.69;54.95;97371.91;5028250;28;20585;-77
2023/09/19 07:57:52;;;;;;;8.93;4.77;;;;;;;22.75;54.92;97374.00;5044803;28;20207;-78
2023/09/19 08:00:19;;;;;;;7.43;3.90;;;;;;;22.82;54.27;97365.38;5046121;28;20699;-79
2023/09/19 08:02:47;;;;;;;5.57;4.30;;;;;;;22.75;54.89;97366.91;5045095;28;20221;-78
2023/09/19 08:05:27;;;;;;;7.90;4.30;;;;;;;22.63;55.17;97347.72;5045682;28;20301;-76
2023/09/19 08:07:56;;;;;;;6.73;4.00;;;;;;;22.80;54.33;97363.84;5046188;28;20213;-80
2023/09/19 08:10:27;;;;;;;10.57;4.20;;;;;;;22.65;54.27;97364.25;5043010;28;20500;-76
2023/09/19 08:12:58;;;;;;;6.17;3.37;;;;;;;22.31;54.70;97362.91;5044689;28;20206;-74
2023/09/19 08:15:25;;;;;;;6.50;3.63;;;;;;;22.00;56.01;97350.72;5044870;28;20212;-75
2023/09/19 08:17:52;;;;;;;10.10;3.70;;;;;;;22.23;55.54;97351.34;5045755;28;20256;-76
2023/09/19 08:20:20;;;;;;;5.47;3.90;;;;;;;22.21;55.06;97348.84;5044857;28;20237;-73
2023/09/19 08:22:54;;;;;;;5.33;3.87;;;;;;;22.19;54.91;97352.59;5045121;28;20205;-74
2023/09/19 08:25:23;;;;;;;6.60;4.40;;;;;;;22.20;54.79;97349.81;5048138;28;20268;-74
2023/09/19 08:27:51;;;;;;;8.70;3.43;;;;;;;22.08;54.77;97352.66;5047297;28;20213;-74
2023/09/19 08:30:23;;;;;;;6.57;3.90;;;;;;;22.12;55.27;97344.38;5032897;28;20206;-83
2023/09/19 08:33:00;;;;;;;10.10;4.90;;;;;;;22.15;55.21;97335.34;5048627;28;20645;-76
2023/09/19 08:35:28;;;;;;;7.03;3.70;;;;;;;22.34;54.48;97325.66;5046373;28;20640;-76
2023/09/19 08:37:56;;;;;;;6.20;3.83;;;;;;;22.37;54.79;97330.69;5049435;28;20212;-82
2023/09/19 08:40:24;;;;;;;7.03;3.57;;;;;;;22.02;55.27;97334.75;5048421;28;20255;-74
2023/09/19 08:42:56;;;;;;;7.30;4.47;;;;;;;22.00;54.14;97332.25;5048315;28;20775;-76
2023/09/19 08:45:28;;;;;;;3.67;3.27;;;;;;;22.21;53.10;97330.38;5047806;28;20724;-79
2023/09/19 08:47:56;;;;;;;4.73;3.47;;;;;;;22.26;54.15;97322.88;5049804;28;20215;-83
2023/09/19 08:50:30;;;;;;;4.07;3.33;;;;;;;21.99;54.41;97325.28;5051337;28;20296;-74
2023/09/19 08:53:37;;;;;;;9.53;3.90;;;;;;;22.23;54.28;97324.97;5047939;28;20196;-76
2023/09/19 08:56:19;;;;;;;4.60;3.20;;;;;;;22.23;53.81;97323.16;5055269;28;20208;-74
2023/09/19 08:58:54;;;;;;;8.33;3.87;;;;;;;22.55;53.29;97317.66;5056056;28;20205;-73
2023/09/19 09:01:24;;;;;;;6.07;5.03;;;;;;;22.74;51.89;97311.59;5053083;28;20311;-81
2023/09/19 09:03:56;;;;;;;5.53;4.20;;;;;;;22.88;52.18;97303.25;5048751;28;20236;-81
2023/09/19 09:06:25;;;;;;;5.53;3.70;;;;;;;22.60;51.43;97305.75;5049282;28;20206;-77
2023/09/19 09:08:52;;;;;;;9.20;3.70;;;;;;;22.77;51.56;97295.47;5049474;28;20209;-81
2023/09/19 09:11:20;;;;;;;10.20;4.13;;;;;;;23.02;51.32;97302.84;5051801;28;20210;-79
2023/09/19 09:13:48;;;;;;;3.40;3.10;;;;;;;23.11;50.44;97283.50;5060700;28;20882;-77
2023/09/19 09:16:18;;;;;;;4.23;3.57;;;;;;;23.42;50.39;97292.91;5060463;28;20221;-74
2023/09/19 09:18:52;;;;;;;4.67;3.17;;;;;;;23.38;49.64;97287.09;5054324;28;20225;-79
2023/09/19 09:21:29;;;;;;;3.30;3.00;;;;;;;23.09;50.16;97277.50;5052812;28;20229;-82
2023/09/19 09:23:56;;;;;;;4.13;3.27;;;;;;;23.30;50.53;97286.94;5067425;28;20251;-76
2023/09/19 09:26:39;;;;;;;5.07;3.57;;;;;;;23.03;50.63;97288.66;5069797;28;20196;-73
2023/09/19 09:29:06;;;;;;;7.47;3.73;;;;;;;23.15;50.47;97284.88;5048989;28;20291;-76
2023/09/19 09:31:33;;;;;;;3.73;3.00;;;;;;;22.89;51.05;97267.94;5047960;28;20300;-76
2023/09/19 09:34:01;;;;;;;6.40;3.60;;;;;;;22.97;51.28;97276.84;5048906;28;20205;-74
2023/09/19 09:36:40;;;;;;;6.87;3.80;;;;;;;22.96;51.14;97264.59;5048230;28;20786;-78
2023/09/19 09:39:24;;;;;;;6.20;4.20;;;;;;;23.49;49.92;97267.59;5048371;28;20207;-74
2023/09/19 09:41:52;;;;;;;6.57;4.90;;;;;;;23.83;49.69;97266.06;5046856;28;20280;-74
2023/09/19 09:44:19;;;;;;;6.77;5.00;;;;;;;23.89;49.00;97261.97;5048704;28;20203;-78
2023/09/19 09:51:59;;;;;;;4.20;3.33;;;;;;;23.99;48.18;97245.06;5049475;28;20622;-73
2023/09/19 09:54:47;;;;;;;4.43;3.40;;;;;;;23.86;49.12;97243.78;5046759;28;20257;-73
2023/09/19 09:57:17;;;;;;;6.80;4.37;;;;;;;24.12;48.26;97261.47;5048219;28;20202;-75
2023/09/19 09:59:53;;;;;;;6.17;3.23;;;;;;;24.12;47.92;97245.59;5049644;28;20690;-73
2023/09/19 10:02:25;;;;;;;5.70;3.43;;;;;;;23.99;47.82;97250.38;5066946;28;20236;-74
2023/09/19 10:07:49;;;;;;;5.10;3.20;;;;;;;23.69;49.12;97229.50;5042673;28;20655;-74
2023/09/19 10:10:38;;;;;;;5.20;3.70;;;;;;;24.17;47.88;97243.31;5042644;28;20641;-76
2023/09/19 10:13:13;;;;;;;10.97;5.43;;;;;;;24.33;46.25;97236.53;5049085;28;20226;-74
2023/09/19 10:15:51;;;;;;;7.03;3.70;;;;;;;24.36;46.52;97246.84;5047314;28;20810;-75
2023/09/19 10:18:27;;;;;;;8.13;3.50;;;;;;;24.16;46.43;97240.84;5047542;28;20668;-74
2023/09/19 10:20:57;;;;;;;5.77;3.60;;;;;;;23.99;46.26;97229.19;5046061;28;20222;-75
2023/09/19 10:23:27;;;;;;;5.83;3.40;;;;;;;24.29;46.20;97235.19;5047636;28;20221;-83
2023/09/19 10:25:54;;;;;;;3.93;3.17;;;;;;;24.15;46.03;97237.34;5046883;28;20198;-73
2023/09/19 10:28:22;;;;;;;6.53;3.10;;;;;;;24.23;45.59;97232.13;5046595;28;20585;-74
2023/09/19 10:30:52;;;;;;;4.80;3.40;;;;;;;24.33;45.69;97225.94;5062804;28;20238;-72
2023/09/19 10:33:22;;;;;;;3.80;2.90;;;;;;;24.30;45.45;97220.97;5045740;28;20195;-73
2023/09/19 10:35:55;;;;;;;3.70;2.80;;;;;;;24.28;45.56;97221.09;5047196;28;20196;-81
2023/09/19 10:38:24;;;;;;;5.67;3.00;;;;;;;24.30;45.39;97221.78;5045894;28;20713;-73
2023/09/19 10:40:54;;;;;;;3.53;3.03;;;;;;;24.30;44.80;97219.13;5040823;28;20228;-74
2023/09/19 10:43:26;;;;;;;4.67;3.10;;;;;;;24.31;44.58;97217.34;5042862;28;20661;-74
2023/09/19 10:45:57;;;;;;;5.97;3.30;;;;;;;24.33;44.14;97192.38;5045126;28;20240;-74
2023/09/19 10:48:25;;;;;;;2.77;2.47;;;;;;;24.51;42.91;97213.53;5045360;28;20206;-74
2023/09/19 10:51:09;;;;;;;3.27;2.97;;;;;;;24.49;42.25;97211.06;5047251;28;20675;-74
2023/09/19 10:54:01;;;;;;;6.83;2.70;;;;;;;24.18;40.99;97133.84;5046354;28;20210;-76
2023/09/19 10:56:42;;;;;;;2.90;2.60;;;;;;;24.70;41.73;97198.34;5045350;28;20198;-77
2023/09/19 10:59:20;;;;;;;3.50;3.20;;;;;;;25.20;41.91;97195.91;5046225;28;20226;-72
2023/09/19 11:01:51;;;;;;;5.60;3.43;;;;;;;25.48;41.85;97192.13;5046310;28;20225;-77
2023/09/19 11:04:29;;;;;;;3.97;3.13;;;;;;;25.47;42.55;97195.75;5042400;28;20207;-73
2023/09/19 11:07:08;;;;;;;5.27;3.40;;;;;;;25.38;42.32;97190.53;5045460;28;20630;-74
2023/09/19 11:09:53;;;;;;;6.20;3.40;;;;;;;25.34;42.62;97184.72;5045996;28;20201;-76
2023/09/19 11:12:40;;;;;;;3.83;3.03;;;;;;;25.42;42.57;97178.66;5045417;28;20191;-73
2023/09/19 11:15:10;;;;;;;5.07;2.90;;;;;;;25.32;41.98;97176.09;5044205;28;20234;-73
2023/09/19 11:17:41;;;;;;;4.40;3.13;;;;;;;25.27;42.45;97153.66;5045472;28;20237;-73
2023/09/19 11:22:48;;;;;;;5.73;3.50;;;;;;;25.37;41.16;97160.53;5046742;28;20373;-75
2023/09/19 11:25:47;;;;;;;5.37;4.27;;;;;;;25.48;40.45;97160.28;5044569;28;20194;-73
2023/09/19 11:28:25;;;;;;;6.83;3.60;;;;;;;25.49;39.87;97159.28;5045737;28;20504;-73
2023/09/19 11:30:53;;;;;;;7.53;3.83;;;;;;;25.39;40.29;97150.59;5047126;28;20661;-74
2023/09/19 11:33:33;;;;;;;5.40;3.30;;;;;;;25.30;41.09;97159.50;5047518;28;20196;-73
2023/09/19 11:36:15;;;;;;;3.57;2.87;;;;;;;24.88;41.70;97132.09;5055320;28;20194;-73
2023/09/19 11:38:49;;;;;;;6.63;3.57;;;;;;;24.75;42.50;97158.19;5053720;28;20286;-75
2023/09/19 11:41:25;;;;;;;5.23;2.93;;;;;;;24.77;42.73;97150.91;5049034;28;20619;-75
2023/09/19 11:44:00;;;;;;;4.93;3.07;;;;;;;24.93;42.83;97141.25;5047993;28;20682;-75
2023/09/19 11:46:28;;;;;;;6.70;3.00;;;;;;;24.89;43.13;97145.16;5050903;28;20209;-77
2023/09/19 11:49:08;;;;;;;4.57;3.10;;;;;;;24.84;41.99;97142.16;5048032;28;20217;-82
2023/09/19 11:51:44;;;;;;;4.07;3.10;;;;;;;24.72;42.47;97121.34;5043604;28;20260;-74
2023/09/19 11:54:17;;;;;;;4.60;2.70;;;;;;;24.70;42.42;97120.69;5046217;28;20197;-75
2023/09/19 11:56:48;;;;;;;5.63;3.20;;;;;;;24.67;43.24;97126.28;5045989;28;20219;-82
2023/09/19 11:59:24;;;;;;;3.37;2.90;;;;;;;24.54;43.31;97120.56;5044851;28;20183;-75
2023/09/19 12:01:57;;;;;;;4.17;2.80;;;;;;;24.36;42.60;97111.81;5050449;28;20226;-81
2023/09/19 12:04:53;;;;;;;6.97;2.93;;;;;;;24.49;43.11;97109.59;5043756;28;20199;-73